sensor_id;sensor_type;location;lat;lon;timestamp;pressure;altitude;pressure_sealevel;temperature;humidity
28911;BME280;16028;42.642;23.310;2023-01-27T00:00:04;93154.22;;;1.31;100.00
28911;BME280;16028;42.642;23.310;2023-01-27T00:02:31;93171.00;;;1.24;100.00
28911;BME280;16028;42.642;23.310;2023-01-27T00:04:57;93170.66;;;1.29;100.00
28911;BME280;16028;42.642;23.310;2023-01-27T00:07:24;93168.69;;;1.32;100.00
28911;BME280;16028;42.642;23.310;2023-01-27T00:09:52;93166.13;;;1.21;100.00
28911;BME280;16028;42.642;23.310;2023-01-27T00:12:19;93160.41;;;1.18;100.00
28911;BME280;16028;42.642;23.310;2023-01-27T00:15:04;93162.00;;;1.19;100.00
28911;BME280;16028;42.642;23.310;2023-01-27T00:17:32;93163.06;;;1.16;100.00
28911;BME280;16028;42.642;23.310;2023-01-27T00:19:58;93147.09;;;1.13;100.00
28911;BME280;16028;42.642;23.310;2023-01-27T00:22:25;93150.72;;;1.10;100.00
28911;BME280;16028;42.642;23.310;2023-01-27T00:25:22;93138.03;;;1.20;100.00
28911;BME280;16028;42.642;23.310;2023-01-27T00:27:48;93137.69;;;1.13;100.00
28911;BME280;16028;42.642;23.310;2023-01-27T00:30:15;93135.59;;;1.18;100.00
28911;BME280;16028;42.642;23.310;2023-01-27T00:32:42;93146.28;;;1.12;100.00
28911;BME280;16028;42.642;23.310;2023-01-27T00:35:25;93139.69;;;1.32;100.00
28911;BME280;16028;42.642;23.310;2023-01-27T00:37:52;93146.91;;;1.27;100.00
28911;BME280;16028;42.642;23.310;2023-01-27T00:40:18;93135.38;;;1.21;100.00
28911;BME280;16028;42.642;23.310;2023-01-27T00:42:46;93124.66;;;1.16;100.00
28911;BME280;16028;42.642;23.310;2023-01-27T00:45:13;93145.97;;;1.17;100.00
28911;BME280;16028;42.642;23.310;2023-01-27T00:47:56;93146.91;;;1.27;100.00
28911;BME280;16028;42.642;23.310;2023-01-27T00:50:23;93149.69;;;1.24;100.00
28911;BME280;16028;42.642;23.310;2023-01-27T00:52:49;93141.31;;;1.22;100.00
28911;BME280;16028;42.642;23.310;2023-01-27T00:55:16;93145.28;;;1.26;100.00
28911;BME280;16028;42.642;23.310;2023-01-27T00:57:43;93149.94;;;1.32;100.00
28911;BME280;16028;42.642;23.310;2023-01-27T01:00:12;93151.34;;;1.36;100.00
28911;BME280;16028;42.642;23.310;2023-01-27T01:02:39;93141.91;;;1.36;100.00
28911;BME280;16028;42.642;23.310;2023-01-27T01:05:06;93141.56;;;1.41;100.00
28911;BME280;16028;42.642;23.310;2023-01-27T01:07:32;93140.97;;;1.37;100.00
28911;BME280;16028;42.642;23.310;2023-01-27T01:09:59;93142.75;;;1.37;100.00
28911;BME280;16028;42.642;23.310;2023-01-27T01:12:25;93138.22;;;1.40;100.00
28911;BME280;16028;42.642;23.310;2023-01-27T01:14:52;93141.56;;;1.41;100.00
28911;BME280;16028;42.642;23.310;2023-01-27T01:17:20;93136.09;;;1.45;100.00
28911;BME280;16028;42.642;23.310;2023-01-27T01:19:46;93136.19;;;1.44;100.00
28911;BME280;16028;42.642;23.310;2023-01-27T01:22:13;93139.47;;;1.46;100.00
28911;BME280;16028;42.642;23.310;2023-01-27T01:24:39;93146.94;;;1.49;100.00
28911;BME280;16028;42.642;23.310;2023-01-27T01:27:06;93136.44;;;1.41;100.00
28911;BME280;16028;42.642;23.310;2023-01-27T01:29:33;93135.66;;;1.40;100.00
28911;BME280;16028;42.642;23.310;2023-01-27T01:31:59;93135.97;;;1.47;100.00
28911;BME280;16028;42.642;23.310;2023-01-27T01:34:27;93147.63;;;1.51;100.00
28911;BME280;16028;42.642;23.310;2023-01-27T01:36:53;93146.00;;;1.50;100.00
28911;BME280;16028;42.642;23.310;2023-01-27T01:39:20;93145.16;;;1.38;100.00
28911;BME280;16028;42.642;23.310;2023-01-27T01:41:46;93154.81;;;1.35;100.00
28911;BME280;16028;42.642;23.310;2023-01-27T01:44:17;93156.13;;;1.40;100.00
28911;BME280;16028;42.642;23.310;2023-01-27T01:46:44;93155.31;;;1.40;100.00
28911;BME280;16028;42.642;23.310;2023-01-27T01:49:10;93148.66;;;1.37;100.00
28911;BME280;16028;42.642;23.310;2023-01-27T01:51:40;93139.59;;;1.33;100.00
28911;BME280;16028;42.642;23.310;2023-01-27T01:54:08;93138.78;;;1.33;100.00
28911;BME280;16028;42.642;23.310;2023-01-27T01:56:37;93142.28;;;1.43;100.00
28911;BME280;16028;42.642;23.310;2023-01-27T01:59:07;93138.78;;;1.33;100.00
28911;BME280;16028;42.642;23.310;2023-01-27T02:01:36;93128.06;;;1.39;100.00
28911;BME280;16028;42.642;23.310;2023-01-27T02:04:03;93109.22;;;1.40;100.00
28911;BME280;16028;42.642;23.310;2023-01-27T02:06:30;93114.44;;;1.27;100.00
28911;BME280;16028;42.642;23.310;2023-01-27T02:09:04;93114.22;;;1.30;100.00
28911;BME280;16028;42.642;23.310;2023-01-27T02:11:30;93102.69;;;1.36;100.00
28911;BME280;16028;42.642;23.310;2023-01-27T02:13:58;93093.25;;;1.36;100.00
28911;BME280;16028;42.642;23.310;2023-01-27T02:16:27;93090.34;;;1.30;100.00
28911;BME280;16028;42.642;23.310;2023-01-27T02:18:54;93086.38;;;1.26;100.00
28911;BME280;16028;42.642;23.310;2023-01-27T02:21:21;93083.72;;;1.27;100.00
28911;BME280;16028;42.642;23.310;2023-01-27T02:23:49;93082.41;;;1.22;100.00
28911;BME280;16028;42.642;23.310;2023-01-27T02:26:21;93087.19;;;1.26;100.00
28911;BME280;16028;42.642;23.310;2023-01-27T02:28:55;93078.22;;;1.21;100.00
28911;BME280;16028;42.642;23.310;2023-01-27T02:31:22;93084.16;;;1.32;100.00
28911;BME280;16028;42.642;23.310;2023-01-27T02:33:48;93077.19;;;1.23;100.00
28911;BME280;16028;42.642;23.310;2023-01-27T02:36:16;93077.53;;;1.30;100.00
28911;BME280;16028;42.642;23.310;2023-01-27T02:38:44;93075.31;;;1.36;100.00
28911;BME280;16028;42.642;23.310;2023-01-27T02:41:13;93073.34;;;1.29;100.00
28911;BME280;16028;42.642;23.310;2023-01-27T02:43:42;93080.56;;;1.24;100.00
28911;BME280;16028;42.642;23.310;2023-01-27T02:46:09;93079.06;;;1.21;100.00
28911;BME280;16028;42.642;23.310;2023-01-27T02:48:35;93082.53;;;1.31;100.00
28911;BME280;16028;42.642;23.310;2023-01-27T02:51:02;93087.19;;;1.26;100.00
28911;BME280;16028;42.642;23.310;2023-01-27T02:53:28;93098.38;;;1.36;100.00
28911;BME280;16028;42.642;23.310;2023-01-27T02:55:55;93102.53;;;1.37;100.00
28911;BME280;16028;42.642;23.310;2023-01-27T02:58:21;93094.53;;;1.31;100.00
28911;BME280;16028;42.642;23.310;2023-01-27T03:00:49;93093.50;;;1.33;100.00
28911;BME280;16028;42.642;23.310;2023-01-27T03:03:15;93081.94;;;1.28;100.00
28911;BME280;16028;42.642;23.310;2023-01-27T03:05:43;93082.88;;;1.27;100.00
28911;BME280;16028;42.642;23.310;2023-01-27T03:08:10;93075.78;;;1.30;100.00
28911;BME280;16028;42.642;23.310;2023-01-27T03:10:36;93074.16;;;1.29;100.00
28911;BME280;16028;42.642;23.310;2023-01-27T03:13:03;93078.47;;;1.29;100.00
28911;BME280;16028;42.642;23.310;2023-01-27T03:15:29;93069.63;;;1.33;100.00
28911;BME280;16028;42.642;23.310;2023-01-27T03:18:14;93062.75;;;1.33;100.00
28911;BME280;16028;42.642;23.310;2023-01-27T03:20:42;93056.81;;;1.33;100.00
28911;BME280;16028;42.642;23.310;2023-01-27T03:23:09;93051.81;;;1.42;100.00
28911;BME280;16028;42.642;23.310;2023-01-27T03:25:39;93051.81;;;1.42;100.00
28911;BME280;16028;42.642;23.310;2023-01-27T03:28:05;93056.91;;;1.31;100.00
28911;BME280;16028;42.642;23.310;2023-01-27T03:30:32;93052.75;;;1.30;100.00
28911;BME280;16028;42.642;23.310;2023-01-27T03:32:59;93049.94;;;1.33;100.00
28911;BME280;16028;42.642;23.310;2023-01-27T03:35:28;93041.06;;;1.37;100.00
28911;BME280;16028;42.642;23.310;2023-01-27T03:38:03;93042.03;;;1.36;100.00
28911;BME280;16028;42.642;23.310;2023-01-27T03:40:47;93032.22;;;1.41;100.00
28911;BME280;16028;42.642;23.310;2023-01-27T03:43:31;93026.88;;;1.44;100.00
28911;BME280;16028;42.642;23.310;2023-01-27T03:46:15;93004.63;;;1.45;99.70
28911;BME280;16028;42.642;23.310;2023-01-27T03:48:43;93012.22;;;1.35;99.68
28911;BME280;16028;42.642;23.310;2023-01-27T03:51:11;93016.88;;;1.30;100.00
28911;BME280;16028;42.642;23.310;2023-01-27T03:53:37;93017.38;;;1.24;100.00
28911;BME280;16028;42.642;23.310;2023-01-27T03:56:04;93022.69;;;1.32;100.00
28911;BME280;16028;42.642;23.310;2023-01-27T03:58:32;93021.88;;;1.32;100.00
28911;BME280;16028;42.642;23.310;2023-01-27T04:00:59;93015.25;;;1.29;100.00
28911;BME280;16028;42.642;23.310;2023-01-27T04:03:27;93029.69;;;1.30;100.00
28911;BME280;16028;42.642;23.310;2023-01-27T04:06:14;93046.31;;;1.25;100.00
28911;BME280;16028;42.642;23.310;2023-01-27T04:08:59;93046.22;;;1.26;100.00
28911;BME280;16028;42.642;23.310;2023-01-27T04:11:25;93062.84;;;1.32;100.00
28911;BME280;16028;42.642;23.310;2023-01-27T04:14:09;93074.97;;;1.41;100.00
28911;BME280;16028;42.642;23.310;2023-01-27T04:16:36;93084.28;;;1.31;100.00
28911;BME280;16028;42.642;23.310;2023-01-27T04:19:03;93085.56;;;1.25;100.00
28911;BME280;16028;42.642;23.310;2023-01-27T04:21:31;93087.66;;;1.31;100.00
28911;BME280;16028;42.642;23.310;2023-01-27T04:23:58;93083.81;;;1.26;100.00
28911;BME280;16028;42.642;23.310;2023-01-27T04:26:25;93094.06;;;1.15;100.00
28911;BME280;16028;42.642;23.310;2023-01-27T04:28:57;93096.97;;;1.21;100.00
28911;BME280;16028;42.642;23.310;2023-01-27T04:31:23;93099.53;;;1.21;100.00
28911;BME280;16028;42.642;23.310;2023-01-27T04:33:50;93104.06;;;1.18;100.00
28911;BME280;16028;42.642;23.310;2023-01-27T04:36:16;93100.31;;;1.22;100.00
28911;BME280;16028;42.642;23.310;2023-01-27T04:38:44;93091.25;;;1.29;100.00
28911;BME280;16028;42.642;23.310;2023-01-27T04:41:11;93101.28;;;1.32;100.00
28911;BME280;16028;42.642;23.310;2023-01-27T04:43:37;93114.06;;;1.32;100.00
28911;BME280;16028;42.642;23.310;2023-01-27T04:46:04;93103.59;;;1.35;100.00
28911;BME280;16028;42.642;23.310;2023-01-27T04:48:30;93093.25;;;1.47;100.00
28911;BME280;16028;42.642;23.310;2023-01-27T04:50:57;93101.28;;;1.54;100.00
28911;BME280;16028;42.642;23.310;2023-01-27T04:53:23;93119.91;;;1.45;100.00
28911;BME280;16028;42.642;23.310;2023-01-27T04:55:51;93118.75;;;1.49;100.00
28911;BME280;16028;42.642;23.310;2023-01-27T04:58:17;93120.25;;;1.51;100.00
28911;BME280;16028;42.642;23.310;2023-01-27T05:00:44;93110.03;;;1.40;100.00
28911;BME280;16028;42.642;23.310;2023-01-27T05:03:10;93115.38;;;1.48;100.00
28911;BME280;16028;42.642;23.310;2023-01-27T05:05:37;93115.72;;;1.33;100.00
28911;BME280;16028;42.642;23.310;2023-01-27T05:08:04;93115.94;;;1.41;100.00
28911;BME280;16028;42.642;23.310;2023-01-27T05:10:31;93115.72;;;1.44;100.00
28911;BME280;16028;42.642;23.310;2023-01-27T05:12:59;93105.69;;;1.41;100.00
28911;BME280;16028;42.642;23.310;2023-01-27T05:15:26;93102.91;;;1.33;100.00
28911;BME280;16028;42.642;23.310;2023-01-27T05:17:52;93115.72;;;1.33;100.00
28911;BME280;16028;42.642;23.310;2023-01-27T05:20:18;93110.81;;;1.41;100.00
28911;BME280;16028;42.642;23.310;2023-01-27T05:22:45;93104.66;;;1.54;100.00
28911;BME280;16028;42.642;23.310;2023-01-27T05:25:11;93100.13;;;1.58;100.00
28911;BME280;16028;42.642;23.310;2023-01-27T05:27:38;93102.47;;;1.50;100.00
28911;BME280;16028;42.642;23.310;2023-01-27T05:30:07;93096.50;;;1.60;100.00
28911;BME280;16028;42.642;23.310;2023-01-27T05:32:34;93082.53;;;1.65;100.00
28911;BME280;16028;42.642;23.310;2023-01-27T05:35:00;93088.13;;;1.58;100.00
28911;BME280;16028;42.642;23.310;2023-01-27T05:37:27;93086.16;;;1.40;100.00
28911;BME280;16028;42.642;23.310;2023-01-27T05:39:53;93086.59;;;1.45;100.00
28911;BME280;16028;42.642;23.310;2023-01-27T05:42:20;93077.66;;;1.39;100.00
28911;BME280;16028;42.642;23.310;2023-01-27T05:44:46;93086.59;;;1.45;100.00
28911;BME280;16028;42.642;23.310;2023-01-27T05:47:14;93082.88;;;1.60;100.00
28911;BME280;16028;42.642;23.310;2023-01-27T05:49:40;93082.63;;;1.63;100.00
28911;BME280;16028;42.642;23.310;2023-01-27T05:52:07;93088.13;;;1.58;100.00
28911;BME280;16028;42.642;23.310;2023-01-27T05:54:33;93091.03;;;1.54;100.00
28911;BME280;16028;42.642;23.310;2023-01-27T05:57:00;93085.44;;;1.49;100.00
28911;BME280;16028;42.642;23.310;2023-01-27T05:59:26;93099.56;;;1.43;100.00
28911;BME280;16028;42.642;23.310;2023-01-27T06:01:53;93113.50;;;1.50;100.00
28911;BME280;16028;42.642;23.310;2023-01-27T06:04:21;93102.66;;;1.47;100.00
28911;BME280;16028;42.642;23.310;2023-01-27T06:06:47;93092.41;;;1.47;100.00
28911;BME280;16028;42.642;23.310;2023-01-27T06:09:13;93091.88;;;1.43;100.00
28911;BME280;16028;42.642;23.310;2023-01-27T06:11:40;93093.97;;;1.49;100.00
28911;BME280;16028;42.642;23.310;2023-01-27T06:14:07;93097.56;;;1.58;100.00
28911;BME280;16028;42.642;23.310;2023-01-27T06:16:34;93086.03;;;1.52;100.00
28911;BME280;16028;42.642;23.310;2023-01-27T06:19:01;93086.13;;;1.51;100.00
28911;BME280;16028;42.642;23.310;2023-01-27T06:21:29;93093.59;;;1.65;100.00
28911;BME280;16028;42.642;23.310;2023-01-27T06:23:56;93097.31;;;1.61;100.00
28911;BME280;16028;42.642;23.310;2023-01-27T06:26:23;93103.03;;;1.65;100.00
28911;BME280;16028;42.642;23.310;2023-01-27T06:28:49;93100.34;;;1.66;100.00
28911;BME280;16028;42.642;23.310;2023-01-27T06:31:17;93104.78;;;1.75;100.00
28911;BME280;16028;42.642;23.310;2023-01-27T06:33:43;93104.06;;;1.73;100.00
28911;BME280;16028;42.642;23.310;2023-01-27T06:36:11;93100.69;;;1.73;100.00
28911;BME280;16028;42.642;23.310;2023-01-27T06:38:39;93100.44;;;1.76;100.00
28911;BME280;16028;42.642;23.310;2023-01-27T06:41:06;93108.94;;;1.76;100.00
28911;BME280;16028;42.642;23.310;2023-01-27T06:43:33;93101.59;;;1.94;100.00
28911;BME280;16028;42.642;23.310;2023-01-27T06:46:00;93101.47;;;1.95;100.00
28911;BME280;16028;42.642;23.310;2023-01-27T06:48:29;93103.34;;;1.82;100.00
28911;BME280;16028;42.642;23.310;2023-01-27T06:50:56;93114.31;;;1.73;100.00
28911;BME280;16028;42.642;23.310;2023-01-27T06:53:23;93115.38;;;1.71;100.00
28911;BME280;16028;42.642;23.310;2023-01-27T06:55:55;93110.44;;;1.79;100.00
28911;BME280;16028;42.642;23.310;2023-01-27T06:58:21;93109.91;;;1.75;100.00
28911;BME280;16028;42.642;23.310;2023-01-27T07:00:48;93115.13;;;1.74;100.00
28911;BME280;16028;42.642;23.310;2023-01-27T07:03:14;93120.72;;;1.90;100.00
28911;BME280;16028;42.642;23.310;2023-01-27T07:05:41;93124.91;;;1.80;100.00
28911;BME280;16028;42.642;23.310;2023-01-27T07:08:07;93131.09;;;1.77;100.00
28911;BME280;16028;42.642;23.310;2023-01-27T07:10:34;93137.97;;;1.77;100.00
28911;BME280;16028;42.642;23.310;2023-01-27T07:13:04;93133.63;;;1.88;100.00
28911;BME280;16028;42.642;23.310;2023-01-27T07:15:31;93127.38;;;1.81;100.00
28911;BME280;16028;42.642;23.310;2023-01-27T07:17:57;93126.19;;;1.74;100.00
28911;BME280;16028;42.642;23.310;2023-01-27T07:20:24;93120.84;;;1.66;100.00
28911;BME280;16028;42.642;23.310;2023-01-27T07:22:52;93128.06;;;1.83;100.00
28911;BME280;16028;42.642;23.310;2023-01-27T07:25:19;93110.59;;;1.77;100.00
28911;BME280;16028;42.642;23.310;2023-01-27T07:27:45;93111.50;;;1.76;100.00
28911;BME280;16028;42.642;23.310;2023-01-27T07:30:13;93108.13;;;1.87;100.00
28911;BME280;16028;42.642;23.310;2023-01-27T07:32:40;93120.94;;;1.87;100.00
28911;BME280;16028;42.642;23.310;2023-01-27T07:35:06;93126.41;;;1.82;100.00
28911;BME280;16028;42.642;23.310;2023-01-27T07:37:33;93116.16;;;1.93;100.00
28911;BME280;16028;42.642;23.310;2023-01-27T07:39:59;93130.16;;;2.00;100.00
28911;BME280;16028;42.642;23.310;2023-01-27T07:42:26;93130.38;;;1.97;100.00
28911;BME280;16028;42.642;23.310;2023-01-27T07:44:53;93135.16;;;1.91;100.00
28911;BME280;16028;42.642;23.310;2023-01-27T07:47:20;93125.34;;;1.96;100.00
28911;BME280;16028;42.642;23.310;2023-01-27T07:49:48;93132.47;;;1.92;100.00
28911;BME280;16028;42.642;23.310;2023-01-27T07:52:14;93129.81;;;1.94;100.00
28911;BME280;16028;42.642;23.310;2023-01-27T07:54:41;93131.41;;;1.95;99.59
28911;BME280;16028;42.642;23.310;2023-01-27T07:57:08;93136.78;;;1.92;100.00
28911;BME280;16028;42.642;23.310;2023-01-27T07:59:34;93132.72;;;1.89;100.00
28911;BME280;16028;42.642;23.310;2023-01-27T08:02:00;93126.19;;;1.96;100.00
28911;BME280;16028;42.642;23.310;2023-01-27T08:04:28;93125.84;;;1.90;100.00
28911;BME280;16028;42.642;23.310;2023-01-27T08:06:55;93131.31;;;1.96;100.00
28911;BME280;16028;42.642;23.310;2023-01-27T08:09:22;93121.63;;;1.89;100.00
28911;BME280;16028;42.642;23.310;2023-01-27T08:11:48;93120.94;;;1.87;100.00
28911;BME280;16028;42.642;23.310;2023-01-27T08:14:15;93112.56;;;1.85;100.00
28911;BME280;16028;42.642;23.310;2023-01-27T08:16:41;93115.72;;;1.77;100.00
28911;BME280;16028;42.642;23.310;2023-01-27T08:19:08;93111.75;;;1.73;100.00
28911;BME280;16028;42.642;23.310;2023-01-27T08:21:35;93120.50;;;1.71;100.00
28911;BME280;16028;42.642;23.310;2023-01-27T08:24:02;93126.53;;;1.70;100.00
28911;BME280;16028;42.642;23.310;2023-01-27T08:26:29;93132.84;;;1.77;100.00
28911;BME280;16028;42.642;23.310;2023-01-27T08:28:55;93127.47;;;1.80;100.00
28911;BME280;16028;42.642;23.310;2023-01-27T08:31:22;93129.34;;;1.78;100.00
28911;BME280;16028;42.642;23.310;2023-01-27T08:33:49;93137.50;;;1.72;100.00
28911;BME280;16028;42.642;23.310;2023-01-27T08:36:17;93129.47;;;1.87;100.00
28911;BME280;16028;42.642;23.310;2023-01-27T08:38:47;93134.34;;;1.90;100.00
28911;BME280;16028;42.642;23.310;2023-01-27T08:41:17;93143.06;;;1.99;100.00
28911;BME280;16028;42.642;23.310;2023-01-27T08:43:44;93142.97;;;2.00;100.00
28911;BME280;16028;42.642;23.310;2023-01-27T08:46:10;93139.91;;;1.95;100.00
28911;BME280;16028;42.642;23.310;2023-01-27T08:48:37;93139.59;;;2.00;99.99
28911;BME280;16028;42.642;23.310;2023-01-27T08:51:03;93139.47;;;1.90;99.37
28911;BME280;16028;42.642;23.310;2023-01-27T08:53:30;93144.38;;;1.93;98.99
28911;BME280;16028;42.642;23.310;2023-01-27T08:56:01;93141.34;;;1.77;99.00
28911;BME280;16028;42.642;23.310;2023-01-27T08:58:27;93146.56;;;1.76;100.00
28911;BME280;16028;42.642;23.310;2023-01-27T09:00:54;93150.09;;;1.75;100.00
28911;BME280;16028;42.642;23.310;2023-01-27T09:03:20;93137.63;;;1.81;99.94
28911;BME280;16028;42.642;23.310;2023-01-27T09:05:47;93137.13;;;1.76;98.42
28911;BME280;16028;42.642;23.310;2023-01-27T09:08:13;93140.19;;;1.70;98.91
28911;BME280;16028;42.642;23.310;2023-01-27T09:10:40;93139.00;;;1.63;98.96
28911;BME280;16028;42.642;23.310;2023-01-27T09:13:08;93134.22;;;1.70;99.48
28911;BME280;16028;42.642;23.310;2023-01-27T09:15:35;93138.44;;;1.59;99.48
28911;BME280;16028;42.642;23.310;2023-01-27T09:18:02;93138.22;;;1.63;99.81
28911;BME280;16028;42.642;23.310;2023-01-27T09:20:29;93137.50;;;1.60;100.00
28911;BME280;16028;42.642;23.310;2023-01-27T09:22:55;93134.22;;;1.70;100.00
28911;BME280;16028;42.642;23.310;2023-01-27T09:25:22;93134.94;;;1.72;100.00
28911;BME280;16028;42.642;23.310;2023-01-27T09:27:52;93132.25;;;1.84;100.00
28911;BME280;16028;42.642;23.310;2023-01-27T09:30:20;93118.97;;;1.90;100.00
28911;BME280;16028;42.642;23.310;2023-01-27T09:32:47;93125.16;;;1.88;99.32
28911;BME280;16028;42.642;23.310;2023-01-27T09:35:14;93120.50;;;1.82;100.00
28911;BME280;16028;42.642;23.310;2023-01-27T09:37:41;93112.56;;;1.85;99.99
28911;BME280;16028;42.642;23.310;2023-01-27T09:40:12;93115.72;;;1.77;100.00
28911;BME280;16028;42.642;23.310;2023-01-27T09:42:44;93111.88;;;1.72;100.00
28911;BME280;16028;42.642;23.310;2023-01-27T09:45:36;93103.81;;;1.87;100.00
28911;BME280;16028;42.642;23.310;2023-01-27T09:48:12;93104.06;;;1.84;100.00
28911;BME280;16028;42.642;23.310;2023-01-27T09:50:44;93097.28;;;1.83;100.00
28911;BME280;16028;42.642;23.310;2023-01-27T09:53:17;93089.75;;;1.82;99.61
28911;BME280;16028;42.642;23.310;2023-01-27T09:55:48;93092.88;;;1.74;99.65
28911;BME280;16028;42.642;23.310;2023-01-27T09:58:20;93085.44;;;1.71;100.00
28911;BME280;16028;42.642;23.310;2023-01-27T10:00:53;93081.47;;;1.67;100.00
28911;BME280;16028;42.642;23.310;2023-01-27T10:03:29;93077.50;;;1.63;100.00
28911;BME280;16028;42.642;23.310;2023-01-27T10:11:29;93072.81;;;1.79;100.00
28911;BME280;16028;42.642;23.310;2023-01-27T10:14:04;93070.16;;;1.81;100.00
28911;BME280;16028;42.642;23.310;2023-01-27T10:16:40;93067.47;;;1.93;100.00
28911;BME280;16028;42.642;23.310;2023-01-27T10:19:15;93074.91;;;1.85;100.00
28911;BME280;16028;42.642;23.310;2023-01-27T10:21:49;93080.72;;;1.98;100.00
28911;BME280;16028;42.642;23.310;2023-01-27T10:24:21;93076.56;;;1.86;100.00
28911;BME280;16028;42.642;23.310;2023-01-27T10:26:50;93076.25;;;1.69;100.00
28911;BME280;16028;42.642;23.310;2023-01-27T10:29:19;93071.81;;;1.71;100.00
28911;BME280;16028;42.642;23.310;2023-01-27T10:31:52;93077.38;;;1.76;100.00
28911;BME280;16028;42.642;23.310;2023-01-27T10:34:23;93067.16;;;1.65;100.00
28911;BME280;16028;42.642;23.310;2023-01-27T10:36:53;93068.22;;;1.62;100.00
28911;BME280;16028;42.642;23.310;2023-01-27T10:39:24;93079.72;;;1.68;100.00
28911;BME280;16028;42.642;23.310;2023-01-27T10:41:58;93081.38;;;1.69;100.00
28911;BME280;16028;42.642;23.310;2023-01-27T10:44:32;93071.47;;;1.64;100.00
28911;BME280;16028;42.642;23.310;2023-01-27T10:47:05;93070.19;;;1.58;100.00
28911;BME280;16028;42.642;23.310;2023-01-27T10:49:34;93062.59;;;1.68;100.00
28911;BME280;16028;42.642;23.310;2023-01-27T10:52:04;93071.22;;;1.67;100.00
28911;BME280;16028;42.642;23.310;2023-01-27T10:54:36;93070.38;;;1.89;100.00
28911;BME280;16028;42.642;23.310;2023-01-27T10:57:04;93070.03;;;1.82;100.00
28911;BME280;16028;42.642;23.310;2023-01-27T10:59:33;93075.38;;;1.79;100.00
28911;BME280;16028;42.642;23.310;2023-01-27T11:02:06;93071.31;;;1.77;100.00
28911;BME280;16028;42.642;23.310;2023-01-27T11:04:39;93074.72;;;1.77;100.00
28911;BME280;16028;42.642;23.310;2023-01-27T11:07:08;93074.00;;;1.86;100.00
28911;BME280;16028;42.642;23.310;2023-01-27T11:09:41;93069.09;;;1.94;100.00
28911;BME280;16028;42.642;23.310;2023-01-27T11:12:12;93065.47;;;1.97;100.00
28911;BME280;16028;42.642;23.310;2023-01-27T11:14:41;93063.56;;;2.10;100.00
28911;BME280;16028;42.642;23.310;2023-01-27T11:17:13;93057.31;;;1.92;100.00
28911;BME280;16028;42.642;23.310;2023-01-27T11:19:42;93059.19;;;1.79;100.00
28911;BME280;16028;42.642;23.310;2023-01-27T11:22:14;93060.97;;;1.67;100.00
28911;BME280;16028;42.642;23.310;2023-01-27T11:24:43;93059.13;;;1.69;100.00
28911;BME280;16028;42.642;23.310;2023-01-27T11:27:12;93055.03;;;1.78;100.00
28911;BME280;16028;42.642;23.310;2023-01-27T11:29:41;93049.28;;;1.85;100.00
28911;BME280;16028;42.642;23.310;2023-01-27T11:32:14;93044.53;;;1.81;100.00
28911;BME280;16028;42.642;23.310;2023-01-27T11:34:43;93044.41;;;1.82;100.00
28911;BME280;16028;42.642;23.310;2023-01-27T11:37:15;93047.19;;;1.79;100.00
28911;BME280;16028;42.642;23.310;2023-01-27T11:39:42;93047.44;;;1.76;100.00
28911;BME280;16028;42.642;23.310;2023-01-27T11:42:09;93044.78;;;1.67;100.00
28911;BME280;16028;42.642;23.310;2023-01-27T11:44:36;93048.16;;;1.67;100.00
28911;BME280;16028;42.642;23.310;2023-01-27T11:47:03;93040.31;;;1.80;100.00
28911;BME280;16028;42.642;23.310;2023-01-27T11:49:33;93037.09;;;1.78;100.00
28911;BME280;16028;42.642;23.310;2023-01-27T11:52:01;93038.63;;;1.69;100.00
28911;BME280;16028;42.642;23.310;2023-01-27T11:54:33;93038.16;;;1.64;100.00
28911;BME280;16028;42.642;23.310;2023-01-27T11:57:00;93038.16;;;1.64;100.00
28911;BME280;16028;42.642;23.310;2023-01-27T11:59:27;93033.50;;;1.69;100.00
28911;BME280;16028;42.642;23.310;2023-01-27T12:01:56;93028.91;;;1.84;100.00
28911;BME280;16028;42.642;23.310;2023-01-27T12:04:28;93040.22;;;1.70;100.00
28911;BME280;16028;42.642;23.310;2023-01-27T12:07:05;93042.06;;;1.79;100.00
28911;BME280;16028;42.642;23.310;2023-01-27T12:09:36;93035.91;;;1.82;100.00
28911;BME280;16028;42.642;23.310;2023-01-27T12:12:18;93032.06;;;1.87;100.00
28911;BME280;16028;42.642;23.310;2023-01-27T12:14:46;93034.84;;;1.84;100.00
28911;BME280;16028;42.642;23.310;2023-01-27T12:17:14;93036.59;;;1.84;100.00
28911;BME280;16028;42.642;23.310;2023-01-27T12:19:43;93032.34;;;1.62;99.37
28911;BME280;16028;42.642;23.310;2023-01-27T12:22:14;93037.00;;;1.46;100.00
28911;BME280;16028;42.642;23.310;2023-01-27T12:24:45;93047.03;;;1.38;100.00
28911;BME280;16028;42.642;23.310;2023-01-27T12:27:15;93042.84;;;1.37;100.00
28911;BME280;16028;42.642;23.310;2023-01-27T12:29:47;93035.94;;;1.37;100.00
28911;BME280;16028;42.642;23.310;2023-01-27T12:32:15;93044.81;;;1.44;100.00
28911;BME280;16028;42.642;23.310;2023-01-27T12:34:43;93043.06;;;1.56;100.00
28911;BME280;16028;42.642;23.310;2023-01-27T12:37:16;93035.00;;;1.60;100.00
28911;BME280;16028;42.642;23.310;2023-01-27T12:39:47;93036.97;;;1.68;100.00
28911;BME280;16028;42.642;23.310;2023-01-27T12:42:36;93040.56;;;1.77;100.00
28911;BME280;16028;42.642;23.310;2023-01-27T12:45:19;93036.25;;;1.77;100.00
28911;BME280;16028;42.642;23.310;2023-01-27T12:48:00;93039.97;;;1.84;100.00
28911;BME280;16028;42.642;23.310;2023-01-27T12:50:27;93042.06;;;1.79;100.00
28911;BME280;16028;42.642;23.310;2023-01-27T12:53:05;93037.75;;;1.80;100.00
28911;BME280;16028;42.642;23.310;2023-01-27T12:55:33;93035.44;;;1.77;100.00
28911;BME280;16028;42.642;23.310;2023-01-27T12:58:00;93033.56;;;1.79;100.00
28911;BME280;16028;42.642;23.310;2023-01-27T13:00:28;93032.06;;;1.87;100.00
28911;BME280;16028;42.642;23.310;2023-01-27T13:02:59;93027.59;;;1.89;100.00